createdAt,value
2018-04-10T00:00:05.234Z,0.00
2018-04-10T00:01:05.177Z,0.00
2018-04-10T00:02:05.167Z,0.00
2018-04-10T00:03:05.150Z,0.00
2018-04-10T00:04:05.111Z,0.00
2018-04-10T00:05:05.081Z,0.00
2018-04-10T00:06:05.057Z,0.00
2018-04-10T00:07:05.060Z,0.00
2018-04-10T00:08:05.019Z,0.00
2018-04-10T00:09:05.008Z,0.00
2018-04-10T00:10:05.027Z,0.00
2018-04-10T00:11:04.947Z,0.00
2018-04-10T00:12:04.890Z,0.00
2018-04-10T00:13:04.875Z,0.00
2018-04-10T00:14:04.859Z,0.00
2018-04-10T00:15:04.856Z,0.00
2018-04-10T00:16:04.809Z,0.00
2018-04-10T00:17:04.771Z,0.00
2018-04-10T00:18:04.748Z,0.00
2018-04-10T00:19:04.741Z,0.00
2018-04-10T00:20:04.722Z,0.00
2018-04-10T00:21:05.131Z,0.00
2018-04-10T00:22:04.645Z,0.00
2018-04-10T00:23:04.623Z,0.00
2018-04-10T00:24:04.602Z,0.00
2018-04-10T00:25:04.571Z,0.00
2018-04-10T00:26:04.547Z,0.00
2018-04-10T00:27:04.542Z,0.00
2018-04-10T00:28:04.490Z,0.00
2018-04-10T00:29:04.469Z,0.00
2018-04-10T00:30:04.474Z,0.00
2018-04-10T00:31:04.413Z,0.00
2018-04-10T00:32:04.388Z,0.00
2018-04-10T00:33:04.376Z,0.00
2018-04-10T00:34:04.391Z,0.00
2018-04-10T00:35:04.374Z,0.00
2018-04-10T00:36:04.366Z,0.00
2018-04-10T00:37:04.266Z,0.00
2018-04-10T00:38:04.245Z,0.00
2018-04-10T00:39:04.183Z,0.00
2018-04-10T00:40:04.182Z,0.00
2018-04-10T00:41:04.165Z,0.00
2018-04-10T00:42:04.127Z,0.00
2018-04-10T00:43:04.098Z,0.00
2018-04-10T00:44:04.069Z,0.00
2018-04-10T00:45:04.057Z,0.00
2018-04-10T00:46:04.117Z,0.00
2018-04-10T00:47:04.005Z,0.00
2018-04-10T00:48:03.985Z,0.00
2018-04-10T00:49:03.952Z,0.00
2018-04-10T00:50:03.951Z,0.00
2018-04-10T00:51:03.896Z,0.00
2018-04-10T00:52:03.865Z,0.00
2018-04-10T00:53:03.857Z,0.00
2018-04-10T00:54:03.824Z,0.00
2018-04-10T00:55:03.782Z,0.00
2018-04-10T00:56:03.757Z,0.00
2018-04-10T00:57:03.739Z,0.00
2018-04-10T00:58:03.733Z,0.00
2018-04-10T00:59:03.701Z,0.00
2018-04-10T01:00:03.666Z,0.00
2018-04-10T01:01:03.642Z,0.00
2018-04-10T01:02:03.616Z,0.00
2018-04-10T01:03:04.020Z,0.00
2018-04-10T01:04:03.549Z,0.00
2018-04-10T01:05:03.527Z,0.00
2018-04-10T01:06:03.545Z,0.00
2018-04-10T01:07:03.955Z,0.00
2018-04-10T01:08:03.478Z,0.00
2018-04-10T01:09:03.432Z,0.00
2018-04-10T01:10:03.417Z,0.00
2018-04-10T01:11:03.624Z,0.00
2018-04-10T01:12:03.349Z,0.00
2018-04-10T01:13:03.323Z,0.00
2018-04-10T01:14:03.312Z,0.00
2018-04-10T01:15:03.291Z,0.00
2018-04-10T01:16:03.242Z,0.00
2018-04-10T01:17:03.262Z,0.00
2018-04-10T01:18:03.226Z,0.00
2018-04-10T01:19:03.174Z,0.00
2018-04-10T01:20:03.147Z,0.00
2018-04-10T01:21:03.128Z,0.00
2018-04-10T01:22:03.110Z,0.00
2018-04-10T01:23:03.054Z,0.00
2018-04-10T01:24:03.043Z,0.00
2018-04-10T01:25:03.035Z,0.00
2018-04-10T01:26:03.000Z,0.00
2018-04-10T01:27:02.963Z,0.00
2018-04-10T01:28:02.931Z,0.00
2018-04-10T01:29:02.933Z,0.00
2018-04-10T01:30:02.865Z,0.00
2018-04-10T01:31:02.962Z,0.00
2018-04-10T01:32:02.853Z,0.00
2018-04-10T01:33:02.839Z,0.00
2018-04-10T01:34:02.765Z,0.00
2018-04-10T01:35:02.744Z,0.00
2018-04-10T01:36:02.817Z,0.00
2018-04-10T01:37:02.694Z,0.00
2018-04-10T01:38:02.701Z,0.00
2018-04-10T01:39:02.644Z,0.00
2018-04-10T01:40:02.612Z,0.00
2018-04-10T01:41:02.610Z,0.00
2018-04-10T01:42:02.652Z,0.00
2018-04-10T01:43:02.536Z,0.00
2018-04-10T01:44:02.517Z,0.00
2018-04-10T01:45:02.477Z,0.00
2018-04-10T01:46:02.454Z,0.00
2018-04-10T01:47:02.422Z,0.00
2018-04-10T01:48:02.405Z,0.00
2018-04-10T01:49:02.657Z,0.00
2018-04-10T01:50:02.303Z,0.00
2018-04-10T01:51:02.316Z,0.00
2018-04-10T01:52:02.335Z,0.00
2018-04-10T01:53:02.274Z,0.00
2018-04-10T01:54:02.260Z,0.00
2018-04-10T01:55:02.223Z,0.00
2018-04-10T01:56:02.195Z,0.00
2018-04-10T01:57:02.155Z,0.00
2018-04-10T01:58:02.136Z,0.00
2018-04-10T01:59:02.064Z,0.00
2018-04-10T02:00:02.038Z,0.00
2018-04-10T02:01:02.007Z,0.00
2018-04-10T02:02:01.991Z,0.00
2018-04-10T02:03:01.957Z,0.00
2018-04-10T02:04:01.929Z,0.00
2018-04-10T02:05:01.907Z,0.00
2018-04-10T02:06:01.893Z,0.00
2018-04-10T02:07:01.854Z,0.00
2018-04-10T02:08:01.829Z,0.00
2018-04-10T02:09:01.817Z,0.00
2018-04-10T02:10:01.775Z,0.00
2018-04-10T02:16:49.647Z,0.00
2018-04-10T02:17:49.465Z,0.00
2018-04-10T02:19:52.368Z,0.00
2018-04-10T02:20:52.032Z,0.00
2018-04-10T02:23:07.394Z,0.00
2018-04-10T02:24:07.596Z,0.00
2018-04-10T02:25:06.921Z,0.00
2018-04-10T02:26:06.364Z,0.00
2018-04-10T02:27:07.279Z,0.00
2018-04-10T02:28:06.810Z,0.00
2018-04-10T02:29:08.218Z,0.00
2018-04-10T02:30:06.908Z,0.00
2018-04-10T02:31:08.070Z,0.00
2018-04-10T02:32:06.084Z,0.00
2018-04-10T02:33:05.927Z,0.00
2018-04-10T02:34:05.969Z,0.00
2018-04-10T02:35:07.651Z,0.00
2018-04-10T02:36:07.083Z,0.00
2018-04-10T02:37:05.176Z,0.00
2018-04-10T02:38:05.012Z,0.00
2018-04-10T02:39:04.953Z,0.00
2018-04-10T02:40:04.923Z,0.00
2018-04-10T02:41:04.902Z,0.00
2018-04-10T02:42:04.907Z,0.00
2018-04-10T02:43:04.842Z,0.00
2018-04-10T02:44:04.878Z,0.00
2018-04-10T02:45:04.824Z,0.00
2018-04-10T02:46:04.775Z,0.00
2018-04-10T02:47:04.736Z,0.00
2018-04-10T02:48:04.712Z,0.00
2018-04-10T02:49:04.685Z,0.00
2018-04-10T02:50:04.684Z,0.00
2018-04-10T02:51:04.636Z,0.00
2018-04-10T02:52:04.753Z,0.00
2018-04-10T02:53:04.578Z,0.00
2018-04-10T02:54:04.554Z,0.00
2018-04-10T02:55:04.522Z,0.00
2018-04-10T02:56:04.514Z,0.00
2018-04-10T02:57:04.479Z,0.00
2018-04-10T02:58:04.445Z,0.00
2018-04-10T02:59:04.424Z,0.00
2018-04-10T03:00:04.397Z,0.00
2018-04-10T03:01:06.215Z,0.00
2018-04-10T03:02:04.337Z,0.00
2018-04-10T03:03:04.317Z,0.00
2018-04-10T03:04:04.285Z,0.00
2018-04-10T03:05:04.266Z,0.00
2018-04-10T03:06:04.230Z,0.00
2018-04-10T03:07:04.227Z,0.00
2018-04-10T03:08:04.179Z,0.00
2018-04-10T03:09:04.249Z,0.00
2018-04-10T03:10:04.142Z,0.00
2018-04-10T03:11:04.096Z,0.00
2018-04-10T03:12:04.104Z,0.00
2018-04-10T03:13:04.051Z,0.00
2018-04-10T03:14:04.032Z,0.00
2018-04-10T03:15:04.016Z,0.00
2018-04-10T03:16:04.080Z,0.00
2018-04-10T03:17:03.970Z,0.00
2018-04-10T03:18:03.925Z,0.00
2018-04-10T03:19:03.897Z,0.00
2018-04-10T03:20:03.859Z,0.00
2018-04-10T03:21:03.869Z,0.00
2018-04-10T03:22:03.806Z,0.00
2018-04-10T03:23:03.779Z,0.00
2018-04-10T03:24:03.757Z,0.00
2018-04-10T03:25:03.726Z,0.00
2018-04-10T03:26:03.695Z,0.00
2018-04-10T03:27:03.691Z,0.00
2018-04-10T03:28:03.649Z,0.00
2018-04-10T03:29:03.623Z,0.00
2018-04-10T03:30:03.601Z,0.00
2018-04-10T03:31:03.573Z,0.00
2018-04-10T03:32:03.554Z,0.00
2018-04-10T03:33:03.653Z,0.00
2018-04-10T03:34:03.637Z,0.00
2018-04-10T03:35:03.512Z,0.00
2018-04-10T03:36:03.555Z,0.00
2018-04-10T03:37:03.487Z,0.00
2018-04-10T03:38:03.389Z,0.00
2018-04-10T03:39:03.435Z,0.00
2018-04-10T03:40:03.343Z,0.00
2018-04-10T03:41:03.348Z,0.00
2018-04-10T03:42:03.331Z,0.00
2018-04-10T03:43:03.253Z,0.00
2018-04-10T03:44:03.264Z,0.00
2018-04-10T03:45:03.253Z,0.00
2018-04-10T03:46:03.276Z,0.00
2018-04-10T03:47:03.172Z,0.00
2018-04-10T03:48:03.116Z,0.00
2018-04-10T03:49:03.094Z,0.00
2018-04-10T03:50:03.069Z,0.00
2018-04-10T03:51:03.036Z,0.00
2018-04-10T03:52:03.010Z,0.00
2018-04-10T03:53:02.975Z,0.00
2018-04-10T03:54:02.951Z,0.00
2018-04-10T03:55:02.924Z,0.00
2018-04-10T03:56:03.004Z,0.00
2018-04-10T03:57:02.869Z,0.00
2018-04-10T03:58:02.847Z,0.00
2018-04-10T03:59:02.889Z,0.00
2018-04-10T04:00:02.855Z,0.00
2018-04-10T04:01:02.775Z,0.00
2018-04-10T04:02:02.755Z,0.00
2018-04-10T04:03:02.710Z,0.00
2018-04-10T04:04:02.685Z,0.00
2018-04-10T04:05:02.655Z,0.00
2018-04-10T04:06:02.626Z,0.00
2018-04-10T04:07:02.610Z,0.00
2018-04-10T04:08:02.578Z,0.00
2018-04-10T04:09:02.549Z,0.00
2018-04-10T04:10:02.527Z,0.00
2018-04-10T04:11:02.519Z,0.00
2018-04-10T04:12:02.469Z,0.00
2018-04-10T04:13:02.446Z,0.00
2018-04-10T04:14:02.409Z,0.00
2018-04-10T04:15:02.396Z,0.00
2018-04-10T04:16:02.400Z,0.00
2018-04-10T04:17:02.342Z,0.00
2018-04-10T04:18:02.304Z,0.00
2018-04-10T04:19:02.288Z,0.00
2018-04-10T04:20:02.252Z,0.00
2018-04-10T04:21:02.227Z,0.00
2018-04-10T04:22:02.197Z,0.00
2018-04-10T04:23:02.177Z,4.00
2018-04-10T04:24:02.199Z,4.00
2018-04-10T04:25:02.128Z,0.00
2018-04-10T04:26:03.763Z,4.00
2018-04-10T04:27:02.083Z,4.00
2018-04-10T04:28:02.039Z,4.00
2018-04-10T04:29:02.009Z,4.00
2018-04-10T04:30:01.979Z,4.00
2018-04-10T04:31:01.957Z,8.00
2018-04-10T04:32:01.970Z,8.00
2018-04-10T04:33:01.976Z,8.00
2018-04-10T04:34:01.939Z,12.00
2018-04-10T04:35:01.899Z,12.00
2018-04-10T04:36:01.871Z,16.00
2018-04-10T04:37:01.821Z,20.00
2018-04-10T04:38:01.819Z,24.00
2018-04-10T04:39:01.799Z,28.00
2018-04-10T04:40:01.718Z,32.00
2018-04-10T04:41:01.685Z,36.00
2018-04-10T04:42:01.656Z,40.00
2018-04-10T04:43:01.625Z,44.00
2018-04-10T04:44:01.633Z,52.00
2018-04-10T04:45:01.582Z,60.00
2018-04-10T04:46:01.558Z,68.00
2018-04-10T04:47:01.528Z,72.00
2018-04-10T04:48:01.569Z,80.00
2018-04-10T04:49:01.466Z,88.00
2018-04-10T04:50:01.436Z,96.00
2018-04-10T04:51:01.466Z,104.00
2018-04-10T04:52:01.560Z,116.00
2018-04-10T04:53:01.379Z,128.00
2018-04-10T04:54:01.347Z,136.00
2018-04-10T04:55:01.308Z,152.00
2018-04-10T04:56:01.281Z,168.00
2018-04-10T04:57:01.265Z,184.00
2018-04-10T04:58:01.220Z,196.00
2018-04-10T04:59:01.202Z,220.00
2018-04-10T05:00:01.169Z,240.00
2018-04-10T05:01:01.214Z,260.00
2018-04-10T05:02:01.133Z,284.00
2018-04-10T05:03:01.124Z,308.00
2018-04-10T05:04:01.098Z,332.00
2018-04-10T05:05:01.044Z,360.00
2018-04-10T05:06:01.006Z,388.00
2018-04-10T05:07:00.981Z,416.00
2018-04-10T05:08:00.952Z,444.00
2018-04-10T05:09:00.931Z,476.00
2018-04-10T05:10:00.905Z,512.00
2018-04-10T05:11:00.869Z,544.00
2018-04-10T05:12:00.899Z,580.00
2018-04-10T05:13:00.817Z,616.00
2018-04-10T05:14:00.789Z,656.00
2018-04-10T05:15:00.765Z,696.00
2018-04-10T05:16:00.739Z,732.00
2018-04-10T05:17:00.715Z,776.00
2018-04-10T05:18:00.727Z,816.00
2018-04-10T05:19:00.655Z,860.00
2018-04-10T05:20:00.623Z,900.00
2018-04-10T05:21:00.596Z,940.00
2018-04-10T05:22:00.570Z,980.00
2018-04-10T05:23:00.674Z,1012.00
2018-04-10T05:24:00.519Z,1048.00
2018-04-10T05:25:00.484Z,1072.00
2018-04-10T05:26:00.468Z,1100.00
2018-04-10T05:27:00.481Z,1132.00
2018-04-10T05:28:00.503Z,1156.00
2018-04-10T05:29:00.424Z,1188.00
2018-04-10T05:30:00.366Z,1220.00
2018-04-10T05:31:00.325Z,1252.00
2018-04-10T05:32:00.673Z,1280.00
2018-04-10T05:33:02.339Z,1308.00
2018-04-10T05:34:00.240Z,1340.00
2018-04-10T05:35:00.228Z,1380.00
2018-04-10T05:36:00.276Z,1412.00
2018-04-10T05:37:00.199Z,1444.00
2018-04-10T05:38:00.134Z,1480.00
2018-04-10T05:39:00.197Z,1516.00
2018-04-10T05:40:00.165Z,1564.00
2018-04-10T05:41:00.134Z,1608.00
2018-04-10T05:42:00.075Z,1652.00
2018-04-10T05:43:00.000Z,1716.00
2018-04-10T05:43:59.973Z,1796.00
2018-04-10T05:44:59.943Z,1860.00
2018-04-10T05:45:59.919Z,1896.00
2018-04-10T05:46:59.886Z,1920.00
2018-04-10T05:47:59.863Z,1948.00
2018-04-10T05:48:59.968Z,1988.00
2018-04-10T05:49:59.823Z,2044.00
2018-04-10T05:50:59.789Z,2092.00
2018-04-10T05:51:59.849Z,2128.00
2018-04-10T05:52:59.737Z,2164.00
2018-04-10T05:53:59.707Z,2204.00
2018-04-10T05:54:59.695Z,2228.00
2018-04-10T05:55:59.738Z,2248.00
2018-04-10T05:56:59.629Z,2256.00
2018-04-10T05:57:59.597Z,2268.00
2018-04-10T05:58:59.568Z,2264.00
2018-04-10T05:59:59.548Z,2268.00
2018-04-10T06:00:59.529Z,2292.00
2018-04-10T06:01:59.483Z,2316.00
2018-04-10T06:02:59.507Z,2340.00
2018-04-10T06:03:59.470Z,2352.00
2018-04-10T06:04:59.452Z,2356.00
2018-04-10T06:05:59.393Z,2396.00
2018-04-10T06:06:59.428Z,2428.00
2018-04-10T06:07:59.336Z,2440.00
2018-04-10T06:08:59.307Z,2448.00
2018-04-10T06:09:59.268Z,2452.00
2018-04-10T06:10:59.364Z,2464.00
2018-04-10T06:11:59.296Z,2472.00
2018-04-10T06:12:59.288Z,2484.00
2018-04-10T06:13:59.165Z,2500.00
2018-04-10T06:14:59.145Z,2512.00
2018-04-10T06:15:59.208Z,2544.00
2018-04-10T06:16:59.092Z,2576.00
2018-04-10T06:17:59.078Z,2616.00
2018-04-10T06:18:59.040Z,2652.00
2018-04-10T06:19:59.197Z,2692.00
2018-04-10T06:20:58.984Z,2732.00
2018-04-10T06:21:58.962Z,2776.00
2018-04-10T06:22:59.044Z,2820.00
2018-04-10T06:23:58.908Z,2872.00
2018-04-10T06:24:58.905Z,2912.00
2018-04-10T06:25:58.856Z,2964.00
2018-04-10T06:26:58.909Z,3008.00
2018-04-10T06:27:58.806Z,3052.00
2018-04-10T06:29:00.744Z,3096.00
2018-04-10T06:29:58.755Z,3132.00
2018-04-10T06:30:58.805Z,3164.00
2018-04-10T06:31:58.699Z,3192.00
2018-04-10T06:32:58.678Z,3212.00
2018-04-10T06:33:58.645Z,3232.00
2018-04-10T06:34:58.638Z,3256.00
2018-04-10T06:36:00.325Z,3280.00
2018-04-10T06:36:58.568Z,3312.00
2018-04-10T06:37:58.550Z,3348.00
2018-04-10T06:38:58.513Z,3388.00
2018-04-10T06:39:58.495Z,3428.00
2018-04-10T06:40:58.474Z,3456.00
2018-04-10T06:41:58.433Z,3488.00
2018-04-10T06:42:58.406Z,3524.00
2018-04-10T06:43:58.395Z,3568.00
2018-04-10T06:44:58.382Z,3612.00
2018-04-10T06:46:01.238Z,3672.00
2018-04-10T06:46:58.313Z,3732.00
2018-04-10T06:47:58.280Z,3796.00
2018-04-10T06:48:58.359Z,3864.00
2018-04-10T06:49:58.249Z,3936.00
2018-04-10T06:50:58.210Z,3992.00
2018-04-10T06:51:58.172Z,4056.00
2018-04-10T06:52:58.189Z,4120.00
2018-04-10T06:53:58.124Z,4180.00
2018-04-10T06:54:58.108Z,4248.00
2018-04-10T06:55:58.077Z,4320.00
2018-04-10T06:56:58.041Z,4404.00
2018-04-10T06:57:58.014Z,4460.00
2018-04-10T06:58:57.991Z,4540.00
2018-04-10T06:59:57.962Z,4628.00
2018-04-10T07:00:57.935Z,4696.00
2018-04-10T07:01:57.917Z,4780.00
2018-04-10T07:02:57.895Z,4868.00
2018-04-10T07:03:57.869Z,4940.00
2018-04-10T07:04:57.847Z,5040.00
2018-04-10T07:05:59.755Z,5112.00
2018-04-10T07:06:57.800Z,5196.00
2018-04-10T07:07:57.794Z,5280.00
2018-04-10T07:08:57.751Z,5336.00
2018-04-10T07:10:00.266Z,5384.00
2018-04-10T07:10:57.697Z,5452.00
2018-04-10T07:11:57.661Z,5500.00
2018-04-10T07:12:57.637Z,5532.00
2018-04-10T07:13:57.611Z,5584.00
2018-04-10T07:14:57.589Z,5624.00
2018-04-10T07:15:57.573Z,5720.00
2018-04-10T07:16:57.563Z,5720.00
2018-04-10T07:17:57.517Z,5824.00
2018-04-10T07:18:57.551Z,5892.00
2018-04-10T07:19:57.459Z,6000.00
2018-04-10T07:20:57.496Z,6136.00
2018-04-10T07:21:57.413Z,6228.00
2018-04-10T07:22:57.472Z,6240.00
2018-04-10T07:23:57.378Z,6280.00
2018-04-10T07:24:57.345Z,6304.00
2018-04-10T07:25:57.315Z,6348.00
2018-04-10T07:26:57.295Z,6368.00
2018-04-10T07:27:57.259Z,6324.00
2018-04-10T07:28:57.247Z,6324.00
2018-04-10T07:29:57.215Z,6292.00
2018-04-10T07:30:57.184Z,6232.00
2018-04-10T07:31:57.162Z,6220.00
2018-04-10T07:32:57.139Z,6172.00
2018-04-10T07:33:57.108Z,6108.00
2018-04-10T07:34:57.089Z,6060.00
2018-04-10T07:35:57.083Z,5964.00
2018-04-10T07:36:57.118Z,5908.00
2018-04-10T07:37:57.022Z,5680.00
2018-04-10T07:38:56.999Z,5664.00
2018-04-10T07:39:56.986Z,5628.00
2018-04-10T07:40:56.941Z,5452.00
2018-04-10T07:41:56.917Z,5408.00
2018-04-10T07:42:56.895Z,5212.00
2018-04-10T07:43:56.868Z,5120.00
2018-04-10T07:44:56.849Z,5116.00
2018-04-10T07:45:56.842Z,5220.00
2018-04-10T07:46:56.787Z,4984.00
2018-04-10T07:47:56.776Z,5096.00
2018-04-10T07:48:56.779Z,4992.00
2018-04-10T07:49:56.720Z,5164.00
2018-04-10T07:50:56.694Z,5064.00
2018-04-10T07:51:56.678Z,4872.00
2018-04-10T07:52:56.656Z,5044.00
2018-04-10T07:53:56.620Z,4852.00
2018-04-10T07:54:56.607Z,4752.00
2018-04-10T07:55:56.583Z,4984.00
2018-04-10T07:56:56.549Z,5016.00
2018-04-10T07:57:56.546Z,5012.00
2018-04-10T07:58:56.509Z,5008.00
2018-04-10T07:59:56.464Z,4984.00
2018-04-10T08:00:56.456Z,4948.00
2018-04-10T08:01:56.426Z,4940.00
2018-04-10T08:02:58.291Z,4876.00
2018-04-10T08:03:59.319Z,4848.00
2018-04-10T08:04:56.358Z,4836.00
2018-04-10T08:05:56.322Z,4852.00
2018-04-10T08:06:56.298Z,4892.00
2018-04-10T08:07:56.274Z,4936.00
2018-04-10T08:08:56.260Z,4988.00
2018-04-10T08:09:56.405Z,5012.00
2018-04-10T08:10:56.256Z,5068.00
2018-04-10T08:11:56.175Z,5128.00
2018-04-10T08:12:56.154Z,5200.00
2018-04-10T08:13:56.128Z,5268.00
2018-04-10T08:14:56.098Z,5376.00
2018-04-10T08:15:56.080Z,5456.00
2018-04-10T08:16:56.061Z,5536.00
2018-04-10T08:17:56.031Z,5632.00
2018-04-10T08:18:56.007Z,5736.00
2018-04-10T08:19:55.979Z,5812.00
2018-04-10T08:20:56.069Z,5904.00
2018-04-10T08:21:55.933Z,5996.00
2018-04-10T08:22:56.077Z,6140.00
2018-04-10T08:23:56.004Z,6284.00
2018-04-10T08:24:55.941Z,6444.00
2018-04-10T08:25:55.950Z,6504.00
2018-04-10T08:26:55.884Z,6812.00
2018-04-10T08:27:55.912Z,7024.00
2018-04-10T08:28:55.861Z,7120.00
2018-04-10T08:29:55.911Z,7176.00
2018-04-10T08:30:55.985Z,7016.00
2018-04-10T08:31:55.808Z,7092.00
2018-04-10T08:32:55.790Z,7116.00
2018-04-10T08:33:55.727Z,7124.00
2018-04-10T08:34:58.426Z,7220.00
2018-04-10T08:35:55.688Z,7168.00
2018-04-10T08:36:55.681Z,7096.00
2018-04-10T08:37:55.574Z,7084.00
2018-04-10T08:38:55.536Z,7076.00
2018-04-10T08:39:55.497Z,7060.00
2018-04-10T08:40:55.463Z,7092.00
2018-04-10T08:41:55.440Z,7164.00
2018-04-10T08:42:55.419Z,7284.00
2018-04-10T08:43:55.393Z,7424.00
2018-04-10T08:44:55.388Z,7584.00
2018-04-10T08:45:55.341Z,7732.00
2018-04-10T08:46:55.324Z,7808.00
2018-04-10T08:47:55.304Z,7880.00
2018-04-10T08:48:55.275Z,7916.00
2018-04-10T08:49:55.253Z,7960.00
2018-04-10T08:50:55.232Z,8000.00
2018-04-10T08:51:55.236Z,8048.00
2018-04-10T08:52:55.183Z,8016.00
2018-04-10T08:53:55.170Z,7924.00
2018-04-10T08:54:55.161Z,7852.00
2018-04-10T08:55:55.106Z,7832.00
2018-04-10T08:56:55.083Z,7832.00
2018-04-10T08:57:55.058Z,7868.00
2018-04-10T08:58:55.043Z,7916.00
2018-04-10T08:59:55.046Z,7956.00
2018-04-10T09:00:54.991Z,8016.00
2018-04-10T09:01:54.982Z,8116.00
2018-04-10T09:02:54.962Z,8208.00
2018-04-10T09:03:54.929Z,8316.00
2018-04-10T09:04:56.783Z,8400.00
2018-04-10T09:05:54.882Z,8424.00
2018-04-10T09:06:54.879Z,8508.00
2018-04-10T09:07:54.990Z,8616.00
2018-04-10T09:08:54.831Z,8724.00
2018-04-10T09:09:56.778Z,8784.00
2018-04-10T09:10:54.770Z,8808.00
2018-04-10T09:11:54.752Z,8800.00
2018-04-10T09:12:54.715Z,8712.00
2018-04-10T09:13:54.701Z,8576.00
2018-04-10T09:14:54.678Z,8428.00
2018-04-10T09:15:54.650Z,8312.00
2018-04-10T09:16:54.630Z,8256.00
2018-04-10T09:17:54.603Z,8304.00
2018-04-10T09:18:54.588Z,8280.00
2018-04-10T09:19:54.563Z,8272.00
2018-04-10T09:20:54.530Z,8224.00
2018-04-10T09:21:54.518Z,8224.00
2018-04-10T09:22:54.483Z,8140.00
2018-04-10T09:23:54.464Z,8216.00
2018-04-10T09:24:54.439Z,8392.00
2018-04-10T09:25:54.490Z,8392.00
2018-04-10T09:26:54.402Z,8352.00
2018-04-10T09:27:54.442Z,8408.00
2018-04-10T09:28:54.380Z,8452.00
2018-04-10T09:29:54.329Z,8496.00
2018-04-10T09:30:54.338Z,8572.00
2018-04-10T09:31:54.299Z,8696.00
2018-04-10T09:32:54.262Z,8808.00
2018-04-10T09:33:54.249Z,8928.00
2018-04-10T09:34:54.219Z,9076.00
2018-04-10T09:35:54.213Z,9156.00
2018-04-10T09:36:54.180Z,9172.00
2018-04-10T09:37:54.143Z,9228.00
2018-04-10T09:38:54.130Z,9268.00
2018-04-10T09:39:54.102Z,9396.00
2018-04-10T09:40:54.302Z,9424.00
2018-04-10T09:41:54.064Z,9432.00
2018-04-10T09:42:54.044Z,9432.00
2018-04-10T09:43:54.025Z,9344.00
2018-04-10T09:44:54.007Z,9412.00
2018-04-10T09:45:53.982Z,9436.00
2018-04-10T09:46:53.958Z,9128.00
2018-04-10T09:47:53.935Z,9028.00
2018-04-10T09:48:53.915Z,9056.00
2018-04-10T09:49:55.785Z,9204.00
2018-04-10T09:50:53.865Z,9332.00
2018-04-10T09:51:54.091Z,9436.00
2018-04-10T09:52:53.816Z,9504.00
2018-04-10T09:53:53.813Z,9596.00
2018-04-10T09:54:53.773Z,9660.00
2018-04-10T09:55:53.790Z,9724.00
2018-04-10T09:56:53.767Z,9732.00
2018-04-10T09:57:53.711Z,9776.00
2018-04-10T09:58:53.700Z,9820.00
2018-04-10T09:59:53.670Z,9884.00
2018-04-10T10:00:53.650Z,9952.00
2018-04-10T10:01:56.337Z,10036.00
2018-04-10T10:02:53.602Z,10040.00
2018-04-10T10:03:53.764Z,10048.00
2018-04-10T10:04:53.561Z,9960.00
2018-04-10T10:05:53.539Z,9924.00
2018-04-10T10:06:53.512Z,9808.00
2018-04-10T10:07:53.487Z,9724.00
2018-04-10T10:08:53.472Z,9676.00
2018-04-10T10:09:53.663Z,9628.00
2018-04-10T10:10:53.426Z,9496.00
2018-04-10T10:11:53.410Z,9448.00
2018-04-10T10:12:53.417Z,9452.00
2018-04-10T10:13:53.450Z,9396.00
2018-04-10T10:14:53.346Z,9304.00
2018-04-10T10:15:53.321Z,9188.00
2018-04-10T10:16:53.298Z,9036.00
2018-04-10T10:17:53.283Z,8956.00
2018-04-10T10:18:53.261Z,8940.00
2018-04-10T10:19:53.269Z,8984.00
2018-04-10T10:20:53.220Z,9132.00
2018-04-10T10:21:53.230Z,9252.00
2018-04-10T10:22:53.173Z,9300.00
2018-04-10T10:23:53.162Z,9360.00
2018-04-10T10:24:53.124Z,9424.00
2018-04-10T10:25:53.113Z,9472.00
2018-04-10T10:26:53.085Z,9592.00
2018-04-10T10:27:53.084Z,9736.00
2018-04-10T10:28:53.039Z,9772.00
2018-04-10T10:29:53.026Z,9812.00
2018-04-10T10:30:52.993Z,9776.00
2018-04-10T10:31:52.968Z,9708.00
2018-04-10T10:32:52.962Z,9696.00
2018-04-10T10:33:52.929Z,9632.00
2018-04-10T10:34:53.138Z,9736.00
2018-04-10T10:35:52.891Z,9796.00
2018-04-10T10:36:52.863Z,9956.00
2018-04-10T10:37:52.861Z,10152.00
2018-04-10T10:38:52.824Z,10276.00
2018-04-10T10:39:52.807Z,10380.00
2018-04-10T10:40:52.783Z,10452.00
2018-04-10T10:41:52.761Z,10680.00
2018-04-10T10:42:52.767Z,10684.00
2018-04-10T10:43:53.251Z,10836.00
2018-04-10T10:44:52.712Z,10816.00
2018-04-10T10:45:52.706Z,10600.00
2018-04-10T10:46:54.316Z,10580.00
2018-04-10T10:47:52.636Z,10580.00
2018-04-10T10:48:52.609Z,10684.00
2018-04-10T10:49:52.604Z,10564.00
2018-04-10T10:50:52.578Z,10424.00
2018-04-10T10:51:55.343Z,10500.00
2018-04-10T10:52:52.533Z,10468.00
2018-04-10T10:53:52.561Z,10524.00
2018-04-10T10:54:52.496Z,10576.00
2018-04-10T10:55:52.472Z,10568.00
2018-04-10T10:56:52.458Z,10556.00
2018-04-10T10:57:52.431Z,10604.00
2018-04-10T10:58:52.407Z,10580.00
2018-04-10T10:59:52.438Z,10652.00
2018-04-10T11:00:52.369Z,10676.00
2018-04-10T11:01:52.355Z,10604.00
2018-04-10T11:02:52.333Z,10588.00
2018-04-10T11:03:52.319Z,10624.00
2018-04-10T11:04:52.281Z,10516.00
2018-04-10T11:05:52.258Z,10508.00
2018-04-10T11:06:52.264Z,10508.00
2018-04-10T11:07:52.285Z,10424.00
2018-04-10T11:08:52.200Z,10316.00
2018-04-10T11:09:52.190Z,10240.00
2018-04-10T11:10:52.160Z,10052.00
2018-04-10T11:11:52.141Z,9908.00
2018-04-10T11:12:52.122Z,9812.00
2018-04-10T11:13:52.101Z,9816.00
2018-04-10T11:14:52.091Z,9824.00
2018-04-10T11:15:52.065Z,9868.00
2018-04-10T11:16:52.046Z,9840.00
2018-04-10T11:17:52.033Z,9764.00
2018-04-10T11:18:52.033Z,9636.00
2018-04-10T11:19:51.977Z,9652.00
2018-04-10T11:20:51.954Z,9692.00
2018-04-10T11:21:51.938Z,9776.00
2018-04-10T11:22:51.916Z,9828.00
2018-04-10T11:23:51.937Z,9892.00
2018-04-10T11:24:51.880Z,9976.00
2018-04-10T11:25:51.862Z,9972.00
2018-04-10T11:26:51.962Z,10080.00
2018-04-10T11:27:51.822Z,9960.00
2018-04-10T11:28:51.806Z,9980.00
2018-04-10T11:29:51.793Z,10188.00
2018-04-10T11:30:51.984Z,10264.00
2018-04-10T11:31:51.886Z,10396.00
2018-04-10T11:32:51.735Z,10512.00
2018-04-10T11:33:51.694Z,10548.00
2018-04-10T11:34:51.681Z,10596.00
2018-04-10T11:35:51.667Z,10632.00
2018-04-10T11:36:51.640Z,10692.00
2018-04-10T11:37:51.631Z,10760.00
2018-04-10T11:38:51.604Z,10804.00
2018-04-10T11:39:51.623Z,10848.00
2018-04-10T11:40:51.571Z,10908.00
2018-04-10T11:41:51.542Z,11048.00
2018-04-10T11:42:51.535Z,11236.00
2018-04-10T11:43:51.501Z,11436.00
2018-04-10T11:44:51.499Z,11552.00
2018-04-10T11:45:51.463Z,11704.00
2018-04-10T11:46:51.443Z,11812.00
2018-04-10T11:47:51.458Z,11868.00
2018-04-10T11:48:51.421Z,11888.00
2018-04-10T11:49:51.382Z,11848.00
2018-04-10T11:50:51.367Z,11852.00
2018-04-10T11:51:51.361Z,11780.00
2018-04-10T11:52:51.340Z,11636.00
2018-04-10T11:53:51.311Z,11504.00
2018-04-10T11:54:51.298Z,11368.00
2018-04-10T11:55:51.272Z,11300.00
2018-04-10T11:56:51.258Z,11308.00
2018-04-10T11:57:51.252Z,11268.00
2018-04-10T11:58:52.890Z,11236.00
2018-04-10T11:59:51.188Z,11256.00
2018-04-10T12:00:51.179Z,11344.00
2018-04-10T12:01:51.151Z,11508.00
2018-04-10T12:02:51.143Z,11592.00
2018-04-10T12:03:51.110Z,11564.00
2018-04-10T12:04:51.100Z,11612.00
2018-04-10T12:05:51.072Z,11660.00
2018-04-10T12:06:51.104Z,11688.00
2018-04-10T12:07:51.056Z,11700.00
2018-04-10T12:08:51.018Z,11644.00
2018-04-10T12:09:51.002Z,11684.00
2018-04-10T12:10:50.983Z,11696.00
2018-04-10T12:11:51.004Z,11732.00
2018-04-10T12:12:50.958Z,11784.00
2018-04-10T12:13:50.927Z,11852.00
2018-04-10T12:14:50.912Z,11992.00
2018-04-10T12:15:50.880Z,12088.00
2018-04-10T12:16:50.860Z,12276.00
2018-04-10T12:17:50.846Z,12520.00
2018-04-10T12:18:50.821Z,12760.00
2018-04-10T12:19:50.808Z,12900.00
2018-04-10T12:20:50.786Z,13096.00
2018-04-10T12:21:50.790Z,13312.00
2018-04-10T12:22:50.752Z,13452.00
2018-04-10T12:23:50.758Z,13552.00
2018-04-10T12:24:50.715Z,13572.00
2018-04-10T12:25:50.698Z,13392.00
2018-04-10T12:26:50.688Z,13404.00
2018-04-10T12:27:50.655Z,13252.00
2018-04-10T12:28:50.637Z,13472.00
2018-04-10T12:29:50.624Z,13196.00
2018-04-10T12:30:50.598Z,13140.00
2018-04-10T12:31:50.585Z,13024.00
2018-04-10T12:32:50.566Z,12740.00
2018-04-10T12:33:50.548Z,12436.00
2018-04-10T12:34:50.530Z,12240.00
2018-04-10T12:35:50.513Z,12160.00